Terminal Aerodrome Forecast
Issued by NWS

Home | Current Version | Previous Version | Text Only | Print | Product List | Glossary On
Versions: 1 2 3 4 5 6 7 8 9 10 11 12 13 14 15 16 17
168
FTUS43 KICT 281745
TAFHUT
TAF
KHUT 281745Z 2818/0118 23009KT P6SM BKN130
     FM010000 25007KT P6SM OVC130
     FM010100 35022G30KT P6SM OVC080
     FM010300 34022G30KT P6SM OVC025=

USA.gov is the U.S. government's official web portal to all federal, state and local government web resources and services.